Time;durP1;ratioP1;P1;durP2;ratioP2;P2;SDS_P1;SDS_P2;PMS_P1;PMS_P2;Temp;Humidity;BMP_temperature;BMP_pressure;BME280_temperature;BME280_humidity;BME280_pressure;Samples;Min_cycle;Max_cycle;Signal;HPM_P1;HPM_P2
2022/04/24 00:01:50;;;;;;;0.90;0.70;;;19.70;47.10;;;;;;6122803;29;20051;-68
2022/04/24 00:04:50;;;;;;;1.00;0.90;;;19.70;47.10;;;;;;6123183;29;20054;-68
2022/04/24 00:07:51;;;;;;;2.15;1.05;;;19.70;47.10;;;;;;6122893;29;20403;-68
2022/04/24 00:10:51;;;;;;;1.73;1.08;;;19.70;47.10;;;;;;6123202;29;20042;-68
2022/04/24 00:13:52;;;;;;;0.75;0.70;;;19.70;47.10;;;;;;6122945;29;20341;-68
2022/04/24 00:16:52;;;;;;;0.98;0.90;;;19.70;47.10;;;;;;6123057;29;20429;-68
2022/04/24 00:19:53;;;;;;;0.93;0.82;;;19.70;47.20;;;;;;6123201;29;20051;-68
2022/04/24 00:22:53;;;;;;;1.33;0.95;;;19.70;47.10;;;;;;6122807;29;20491;-68
2022/04/24 00:25:54;;;;;;;1.75;1.10;;;19.70;47.10;;;;;;6122915;29;20110;-68
2022/04/24 00:28:54;;;;;;;1.25;0.95;;;19.70;47.10;;;;;;6122856;29;20047;-68
2022/04/24 00:31:55;;;;;;;1.38;1.00;;;19.70;47.10;;;;;;6145783;28;20355;-68
2022/04/24 00:34:55;;;;;;;1.25;0.70;;;19.70;47.10;;;;;;6145961;29;20035;-68
2022/04/24 00:37:56;;;;;;;1.00;0.90;;;19.70;47.10;;;;;;6146796;29;20093;-68
2022/04/24 00:40:56;;;;;;;0.63;0.63;;;19.70;47.20;;;;;;6146187;29;20031;-68
2022/04/24 00:43:57;;;;;;;1.58;0.90;;;19.70;47.10;;;;;;6139077;29;20031;-69
2022/04/24 00:47:04;;;;;;;1.00;0.85;;;19.70;47.10;;;;;;6122238;29;20404;-68
2022/04/24 00:50:06;;;;;;;1.20;0.82;;;19.70;47.20;;;;;;6122503;29;20027;-68
2022/04/24 00:53:06;;;;;;;1.27;0.90;;;19.70;47.10;;;;;;6122194;29;20035;-68
2022/04/24 00:56:08;;;;;;;1.27;0.90;;;19.70;47.10;;;;;;6122042;29;20027;-68
2022/04/24 00:59:10;;;;;;;1.08;0.90;;;19.70;47.10;;;;;;6122047;29;20110;-68
2022/04/24 01:02:11;;;;;;;1.20;1.05;;;19.70;47.20;;;;;;6135329;28;20471;-68
2022/04/24 01:05:11;;;;;;;1.00;0.82;;;19.70;47.20;;;;;;6160684;28;20020;-68
2022/04/24 01:08:12;;;;;;;1.08;0.70;;;19.70;47.20;;;;;;6145750;28;20035;-68
2022/04/24 01:11:12;;;;;;;0.70;0.70;;;19.70;47.20;;;;;;6145904;28;20118;-68
2022/04/24 01:14:16;;;;;;;0.70;0.60;;;19.70;47.20;;;;;;6146051;28;20033;-68
2022/04/24 01:17:17;;;;;;;0.93;0.82;;;19.70;47.20;;;;;;6150270;28;20434;-68
2022/04/24 01:20:21;;;;;;;0.88;0.80;;;19.70;47.20;;;;;;6150766;28;20113;-68
2022/04/24 01:23:21;;;;;;;1.35;0.80;;;19.70;47.20;;;;;;6150691;28;20505;-68
2022/04/24 01:26:22;;;;;;;1.08;0.85;;;19.70;47.20;;;;;;6148961;28;20034;-68
2022/04/24 01:29:23;;;;;;;0.70;0.60;;;19.70;47.20;;;;;;6150263;28;20023;-68
2022/04/24 01:32:23;;;;;;;1.05;0.85;;;19.70;47.20;;;;;;6150176;29;20106;-68
2022/04/24 01:35:24;;;;;;;1.17;1.00;;;19.70;47.20;;;;;;6150223;29;20027;-68
2022/04/24 01:38:24;;;;;;;1.05;0.80;;;19.70;47.20;;;;;;6150442;29;20031;-68
2022/04/24 01:41:25;;;;;;;1.00;0.82;;;19.70;47.20;;;;;;6150172;29;20033;-68
2022/04/24 01:44:25;;;;;;;1.13;0.75;;;19.70;47.20;;;;;;6139362;29;20035;-68
2022/04/24 01:47:26;;;;;;;1.13;0.80;;;19.70;47.20;;;;;;6126237;29;20024;-68
2022/04/24 01:50:26;;;;;;;1.23;0.88;;;19.70;47.20;;;;;;6126534;29;20031;-68
2022/04/24 01:53:28;;;;;;;1.33;0.88;;;19.70;47.20;;;;;;6126098;29;20020;-68
2022/04/24 01:56:29;;;;;;;1.10;0.73;;;19.70;47.20;;;;;;6126076;29;20079;-68
2022/04/24 01:59:29;;;;;;;0.95;0.82;;;19.70;47.20;;;;;;6126043;29;20419;-68
2022/04/24 02:02:30;;;;;;;0.70;0.68;;;19.70;47.20;;;;;;6125736;29;20119;-68
2022/04/24 02:05:30;;;;;;;1.00;0.80;;;19.70;47.20;;;;;;6125823;29;20071;-68
2022/04/24 02:08:32;;;;;;;0.95;0.65;;;19.70;47.20;;;;;;6125646;29;20383;-68
2022/04/24 02:11:33;;;;;;;0.90;0.70;;;19.70;47.20;;;;;;6125866;29;20036;-68
2022/04/24 02:14:33;;;;;;;0.90;0.68;;;19.70;47.20;;;;;;6125542;29;20039;-69
2022/04/24 02:17:34;;;;;;;0.98;0.80;;;19.70;47.20;;;;;;6125897;29;20047;-69
2022/04/24 02:20:35;;;;;;;0.75;0.70;;;19.70;47.30;;;;;;6125664;29;20023;-69
2022/04/24 02:23:35;;;;;;;3.03;0.90;;;19.70;47.20;;;;;;6125607;29;20031;-69
2022/04/24 02:26:36;;;;;;;2.05;0.80;;;19.70;47.20;;;;;;6125199;29;20535;-69
2022/04/24 02:29:36;;;;;;;1.08;0.75;;;19.70;47.20;;;;;;6130375;28;20276;-68
2022/04/24 02:32:37;;;;;;;0.95;0.77;;;19.70;47.20;;;;;;6149122;29;20045;-68
2022/04/24 02:35:37;;;;;;;1.17;0.68;;;19.70;47.20;;;;;;6149073;29;20031;-69
2022/04/24 02:38:38;;;;;;;0.98;0.73;;;19.70;47.30;;;;;;6149262;29;20085;-69
2022/04/24 02:41:38;;;;;;;0.90;0.70;;;19.70;47.20;;;;;;6149308;29;20106;-68
2022/04/24 02:44:39;;;;;;;1.13;0.63;;;19.70;47.20;;;;;;6135959;29;20024;-68
2022/04/24 02:47:39;;;;;;;1.35;0.90;;;19.70;47.20;;;;;;6125162;29;20539;-68
2022/04/24 02:50:40;;;;;;;1.10;0.70;;;19.70;47.20;;;;;;6124950;29;20043;-68
2022/04/24 02:53:41;;;;;;;0.88;0.75;;;19.70;47.20;;;;;;6124761;29;20309;-68
2022/04/24 02:56:41;;;;;;;0.60;0.50;;;19.70;47.20;;;;;;6124757;29;20055;-68
2022/04/24 02:59:42;;;;;;;1.80;0.70;;;19.70;47.20;;;;;;6132580;28;20398;-68
2022/04/24 03:02:44;;;;;;;1.10;0.93;;;19.70;47.10;;;;;;6148361;28;20079;-68
2022/04/24 03:05:49;;;;;;;1.45;0.90;;;19.70;47.20;;;;;;6148349;28;20020;-68
2022/04/24 03:08:49;;;;;;;0.73;0.70;;;19.70;47.20;;;;;;6148058;29;20096;-69
2022/04/24 03:11:50;;;;;;;1.15;0.85;;;19.70;47.20;;;;;;6148321;28;20042;-68
2022/04/24 03:14:51;;;;;;;1.15;0.85;;;19.70;47.20;;;;;;6148068;28;20688;-68
2022/04/24 03:17:54;;;;;;;0.93;0.73;;;19.70;47.80;;;;;;6148416;29;20031;-68
2022/04/24 03:20:55;;;;;;;1.23;0.85;;;19.70;47.20;;;;;;6147804;28;20034;-68
2022/04/24 03:23:55;;;;;;;1.30;0.75;;;19.70;47.20;;;;;;6148166;28;20027;-69
2022/04/24 03:26:56;;;;;;;0.98;0.73;;;19.70;47.20;;;;;;6147840;28;20062;-68
2022/04/24 03:29:56;;;;;;;1.50;1.00;;;19.70;47.20;;;;;;6147628;28;20031;-68
2022/04/24 03:32:57;;;;;;;0.95;0.85;;;19.70;47.20;;;;;;6148743;29;20079;-68
2022/04/24 03:35:58;;;;;;;1.02;0.82;;;19.70;47.20;;;;;;6147640;29;20031;-68
2022/04/24 03:38:58;;;;;;;0.90;0.70;;;19.70;47.10;;;;;;6146962;28;20505;-68
2022/04/24 03:41:59;;;;;;;0.75;0.65;;;19.70;47.20;;;;;;6168868;28;20031;-68
2022/04/24 03:44:59;;;;;;;0.93;0.82;;;19.70;47.20;;;;;;6140472;28;20706;-68
2022/04/24 03:48:00;;;;;;;1.20;0.88;;;19.70;47.20;;;;;;6124148;29;20082;-68
2022/04/24 03:51:01;;;;;;;0.80;0.57;;;19.70;47.10;;;;;;6123611;29;20529;-68
2022/04/24 03:54:01;;;;;;;0.90;0.68;;;19.70;47.20;;;;;;6123441;29;20067;-68
2022/04/24 03:57:02;;;;;;;0.90;0.73;;;19.70;47.20;;;;;;6141215;28;20032;-68
2022/04/24 04:00:05;;;;;;;0.82;0.70;;;19.70;47.10;;;;;;6147177;28;20019;-68
2022/04/24 04:03:05;;;;;;;0.85;0.68;;;19.70;47.20;;;;;;6146931;28;20054;-68
2022/04/24 04:06:06;;;;;;;1.13;0.70;;;19.70;47.10;;;;;;6146709;28;20034;-68
2022/04/24 04:09:06;;;;;;;0.95;0.75;;;19.70;47.10;;;;;;6146549;28;20050;-68
2022/04/24 04:12:08;;;;;;;0.70;0.57;;;19.70;47.20;;;;;;6147423;28;20065;-68
2022/04/24 04:15:08;;;;;;;1.23;0.88;;;19.70;47.10;;;;;;6146442;28;20061;-69
2022/04/24 04:18:09;;;;;;;0.82;0.60;;;19.70;47.10;;;;;;6147034;28;20050;-68
2022/04/24 04:21:09;;;;;;;1.10;0.90;;;19.70;47.10;;;;;;6146417;28;20513;-68
2022/04/24 04:24:11;;;;;;;1.00;0.70;;;19.70;47.10;;;;;;6146913;28;20027;-68
2022/04/24 04:27:11;;;;;;;1.20;0.80;;;19.70;47.10;;;;;;6146492;28;20157;-68
2022/04/24 04:30:12;;;;;;;1.10;0.73;;;19.70;47.10;;;;;;6146045;29;20032;-68
2022/04/24 04:33:12;;;;;;;1.45;0.90;;;19.70;47.10;;;;;;6145204;29;20391;-68
2022/04/24 04:36:13;;;;;;;0.95;0.73;;;19.70;47.10;;;;;;6145959;29;20034;-68
2022/04/24 04:39:14;;;;;;;1.70;1.10;;;19.70;47.10;;;;;;6146281;29;20106;-68
2022/04/24 04:42:14;;;;;;;0.70;0.70;;;19.70;47.20;;;;;;6146162;29;20031;-68
2022/04/24 04:45:16;;;;;;;0.75;0.75;;;19.70;47.10;;;;;;6128896;29;20024;-68
2022/04/24 04:48:16;;;;;;;0.90;0.60;;;19.70;47.10;;;;;;6122219;29;20027;-69
2022/04/24 04:51:17;;;;;;;1.30;0.80;;;19.70;47.10;;;;;;6122049;29;20403;-68
2022/04/24 04:54:17;;;;;;;3.47;0.85;;;19.70;47.00;;;;;;6122351;29;20035;-68
2022/04/24 04:57:18;;;;;;;0.77;0.60;;;19.70;47.10;;;;;;6122123;29;20046;-69
2022/04/24 05:00:37;;;;;;;0.90;0.80;;;19.70;47.10;;;;;;6122021;29;20394;-68
2022/04/24 05:03:37;;;;;;;1.02;0.70;;;19.70;47.10;;;;;;6122172;29;20063;-68
2022/04/24 05:06:38;;;;;;;1.17;0.90;;;19.70;47.10;;;;;;6122214;29;20086;-69
2022/04/24 05:09:39;;;;;;;1.42;0.80;;;19.70;47.10;;;;;;6122111;29;20491;-68
2022/04/24 05:12:39;;;;;;;1.25;0.80;;;19.70;47.00;;;;;;6122086;29;20119;-68
2022/04/24 05:15:40;;;;;;;0.82;0.80;;;19.70;47.10;;;;;;6122289;29;20375;-68
2022/04/24 05:18:41;;;;;;;1.15;0.93;;;19.70;47.10;;;;;;6122678;29;20035;-68
2022/04/24 05:21:41;;;;;;;1.38;1.00;;;19.70;47.10;;;;;;6122786;29;20032;-68
2022/04/24 05:24:42;;;;;;;1.02;0.57;;;19.70;47.00;;;;;;6122108;29;20039;-68
2022/04/24 05:27:42;;;;;;;1.25;0.57;;;19.70;47.10;;;;;;6122092;29;20030;-68
2022/04/24 05:30:43;;;;;;;1.15;0.65;;;19.70;47.20;;;;;;6143015;28;20037;-69
2022/04/24 05:33:43;;;;;;;0.77;0.60;;;19.70;47.10;;;;;;6169560;28;20504;-68
2022/04/24 05:36:44;;;;;;;1.60;0.95;;;19.70;47.10;;;;;;6169902;28;20031;-68
2022/04/24 05:39:44;;;;;;;0.95;0.55;;;19.70;47.10;;;;;;6169609;28;20027;-68
2022/04/24 05:42:53;;;;;;;2.80;1.17;;;19.70;47.00;;;;;;6169295;28;20077;-68
2022/04/24 05:45:54;;;;;;;0.82;0.68;;;19.70;47.00;;;;;;6145796;28;20118;-68
2022/04/24 05:48:56;;;;;;;0.80;0.70;;;19.70;47.00;;;;;;6145685;28;20037;-68
2022/04/24 05:51:56;;;;;;;0.95;0.80;;;19.70;47.10;;;;;;6145625;28;20305;-68
2022/04/24 05:54:57;;;;;;;1.02;0.75;;;19.70;47.10;;;;;;6145562;28;20046;-68
2022/04/24 05:57:58;;;;;;;0.93;0.70;;;19.70;47.70;;;;;;6148982;28;20035;-68
2022/04/24 06:00:58;;;;;;;1.40;0.80;;;19.70;47.10;;;;;;6146657;28;20031;-68
2022/04/24 06:03:59;;;;;;;1.15;0.82;;;19.70;47.00;;;;;;6149544;28;20470;-68
2022/04/24 06:07:00;;;;;;;1.17;0.77;;;19.70;47.10;;;;;;6149569;28;20027;-69
2022/04/24 06:10:00;;;;;;;0.80;0.70;;;19.70;47.00;;;;;;6149923;28;20351;-68
2022/04/24 06:13:01;;;;;;;1.33;0.90;;;19.70;47.10;;;;;;6149590;28;20035;-68
2022/04/24 06:16:01;;;;;;;1.77;0.80;;;19.70;47.10;;;;;;6149345;28;20106;-68
2022/04/24 06:19:02;;;;;;;1.15;0.70;;;19.70;47.00;;;;;;6149334;28;20039;-68
2022/04/24 06:22:03;;;;;;;1.10;0.90;;;19.70;47.00;;;;;;6149439;28;20345;-68
2022/04/24 06:25:04;;;;;;;0.90;0.60;;;19.70;47.00;;;;;;6149432;28;20033;-68
2022/04/24 06:28:05;;;;;;;0.88;0.73;;;19.70;47.00;;;;;;6149814;28;20109;-68
2022/04/24 06:31:05;;;;;;;1.17;0.80;;;19.70;47.10;;;;;;6148755;28;20066;-68
2022/04/24 06:34:06;;;;;;;0.75;0.70;;;19.70;47.10;;;;;;6148687;29;20202;-68
2022/04/24 06:37:07;;;;;;;1.27;0.80;;;19.70;47.10;;;;;;6148995;29;20379;-68
2022/04/24 06:40:11;;;;;;;1.13;0.90;;;19.70;47.10;;;;;;6139870;28;20031;-68
2022/04/24 06:43:12;;;;;;;1.10;0.80;;;19.70;47.10;;;;;;6138384;28;20012;-68
2022/04/24 06:46:12;;;;;;;0.95;0.75;;;19.70;47.20;;;;;;6140755;28;20525;-68
2022/04/24 06:49:13;;;;;;;1.10;0.90;;;19.70;47.10;;;;;;6170263;28;20041;-68
2022/04/24 06:52:14;;;;;;;1.30;0.80;;;19.70;47.20;;;;;;6171226;28;20437;-68
2022/04/24 06:55:14;;;;;;;0.68;0.63;;;19.70;47.10;;;;;;6171276;28;20236;-67
2022/04/24 06:58:16;;;;;;;1.77;0.75;;;19.70;47.20;;;;;;6167823;28;20101;-68
2022/04/24 07:01:19;;;;;;;0.77;0.68;;;19.70;47.20;;;;;;6168117;28;20109;-68
2022/04/24 07:04:20;;;;;;;1.38;0.90;;;19.70;47.30;;;;;;6170643;28;20034;-68
2022/04/24 07:07:20;;;;;;;0.90;0.70;;;19.70;47.30;;;;;;6171459;28;20031;-68
2022/04/24 07:10:21;;;;;;;0.93;0.70;;;19.70;47.20;;;;;;6170594;28;20041;-68
2022/04/24 07:13:22;;;;;;;1.67;0.70;;;19.70;47.30;;;;;;6163843;28;20094;-68
2022/04/24 07:16:22;;;;;;;0.82;0.80;;;19.70;47.20;;;;;;6123326;29;20031;-69
2022/04/24 07:19:23;;;;;;;1.45;0.88;;;19.70;47.20;;;;;;6123561;29;20016;-68
2022/04/24 07:22:23;;;;;;;2.38;0.95;;;19.70;47.30;;;;;;6123956;29;20055;-68
2022/04/24 07:25:25;;;;;;;1.92;1.00;;;19.70;47.30;;;;;;6124064;29;20446;-68
2022/04/24 07:28:26;;;;;;;1.45;0.85;;;19.70;47.30;;;;;;6123254;29;20026;-69
2022/04/24 07:31:26;;;;;;;2.60;1.27;;;19.70;47.30;;;;;;6159131;28;20030;-68
2022/04/24 07:34:27;;;;;;;2.45;1.23;;;19.70;47.30;;;;;;6153513;28;20028;-68
2022/04/24 07:37:27;;;;;;;2.95;1.33;;;19.70;47.30;;;;;;6141376;28;20352;-68
2022/04/24 07:40:31;;;;;;;2.05;1.33;;;19.70;47.30;;;;;;6125310;28;20023;-68
2022/04/24 07:43:33;;;;;;;2.70;1.40;;;19.70;47.30;;;;;;6122863;29;20079;-68
2022/04/24 07:46:34;;;;;;;3.17;1.80;;;19.70;47.30;;;;;;6124570;29;20027;-68
2022/04/24 07:49:34;;;;;;;2.92;1.60;;;19.70;47.30;;;;;;6145378;28;20031;-68
2022/04/24 07:52:35;;;;;;;3.17;1.50;;;19.70;47.40;;;;;;6146753;28;20074;-68
2022/04/24 07:55:36;;;;;;;3.03;1.60;;;19.70;47.40;;;;;;6147266;28;20684;-68
2022/04/24 07:58:36;;;;;;;5.38;2.13;;;19.70;47.30;;;;;;6147138;28;20027;-68
2022/04/24 08:01:37;;;;;;;3.35;1.67;;;19.70;47.30;;;;;;6133514;28;20044;-68
2022/04/24 08:04:37;;;;;;;3.58;1.73;;;19.70;47.30;;;;;;6124273;28;20553;-68
2022/04/24 08:07:38;;;;;;;4.95;1.88;;;19.70;47.40;;;;;;6124587;29;20035;-68
2022/04/24 08:10:39;;;;;;;4.07;1.60;;;19.70;47.40;;;;;;6124736;29;20046;-68
2022/04/24 08:13:40;;;;;;;3.25;1.88;;;19.70;47.40;;;;;;6122687;29;20027;-68
2022/04/24 08:16:40;;;;;;;2.75;1.70;;;19.70;47.40;;;;;;6122799;29;20039;-68
2022/04/24 08:19:43;;;;;;;7.53;2.30;;;19.70;47.40;;;;;;6124652;29;20569;-68
2022/04/24 08:22:46;;;;;;;4.47;2.00;;;19.70;47.40;;;;;;6137657;28;20534;-68
2022/04/24 08:25:47;;;;;;;2.40;1.70;;;19.70;47.40;;;;;;6158362;28;20284;-68
2022/04/24 08:28:47;;;;;;;6.15;2.33;;;19.70;47.40;;;;;;6172180;28;20030;-69
2022/04/24 08:31:48;;;;;;;4.43;1.80;;;19.70;47.50;;;;;;6148763;28;20102;-69
2022/04/24 08:34:48;;;;;;;4.05;1.70;;;19.70;47.40;;;;;;6148140;29;20491;-69
2022/04/24 08:37:49;;;;;;;4.20;1.98;;;19.70;47.40;;;;;;6147884;29;20031;-68
2022/04/24 08:40:52;;;;;;;3.47;1.95;;;19.70;47.40;;;;;;6148068;29;20493;-68
2022/04/24 08:43:55;;;;;;;5.03;1.95;;;19.70;47.40;;;;;;6141079;29;20538;-68
2022/04/24 08:46:56;;;;;;;4.47;2.00;;;19.70;47.40;;;;;;6123877;29;20079;-68
2022/04/24 08:49:58;;;;;;;5.88;2.20;;;19.70;47.40;;;;;;6123586;29;20035;-68
2022/04/24 08:53:00;;;;;;;3.67;1.80;;;19.70;47.40;;;;;;6120569;29;20043;-68
2022/04/24 08:56:01;;;;;;;3.50;1.77;;;19.70;47.40;;;;;;6123636;29;20135;-68
2022/04/24 08:59:01;;;;;;;6.07;2.20;;;19.70;47.40;;;;;;6123248;29;20464;-68
2022/04/24 09:02:03;;;;;;;4.05;1.98;;;19.70;47.40;;;;;;6136042;28;20055;-69
2022/04/24 09:05:06;;;;;;;5.20;1.70;;;19.70;47.40;;;;;;6161866;28;20019;-68
2022/04/24 09:08:09;;;;;;;4.47;1.92;;;19.70;47.50;;;;;;6146959;28;20034;-68
2022/04/24 09:11:09;;;;;;;5.70;2.20;;;19.70;47.40;;;;;;6146664;28;20046;-68
2022/04/24 09:14:18;;;;;;;4.90;2.20;;;19.70;47.40;;;;;;6146724;28;20050;-68
2022/04/24 09:17:26;;;;;;;4.85;2.00;;;19.70;47.40;;;;;;6146542;28;20420;-68
2022/04/24 09:20:28;;;;;;;4.07;2.05;;;19.70;47.40;;;;;;6147000;28;20016;-68
2022/04/24 09:23:36;;;;;;;4.13;1.80;;;19.70;47.40;;;;;;6147222;28;20114;-68
2022/04/24 09:26:37;;;;;;;4.07;2.05;;;19.70;47.40;;;;;;6147125;28;20453;-68
2022/04/24 09:29:39;;;;;;;3.97;1.95;;;19.70;47.50;;;;;;6146923;28;20024;-68
2022/04/24 09:32:55;;;;;;;3.40;1.67;;;19.70;47.50;;;;;;6147338;29;20134;-68
2022/04/24 09:35:55;;;;;;;4.55;2.03;;;19.70;47.50;;;;;;6155881;28;20026;-68
2022/04/24 09:38:56;;;;;;;4.20;1.90;;;19.70;47.40;;;;;;6175626;28;20494;-68
2022/04/24 09:42:09;;;;;;;3.50;1.50;;;19.70;47.40;;;;;;6175858;28;20490;-68
2022/04/24 09:45:10;;;;;;;3.22;1.55;;;19.70;47.40;;;;;;6158996;28;20099;-68
2022/04/24 09:48:12;;;;;;;4.45;1.70;;;19.70;47.40;;;;;;6151441;28;20055;-68
2022/04/24 09:51:14;;;;;;;3.53;1.58;;;19.70;47.50;;;;;;6151750;28;20066;-69
2022/04/24 09:54:15;;;;;;;3.85;1.70;;;19.70;47.50;;;;;;6148627;28;20036;-68
2022/04/24 09:57:18;;;;;;;4.97;1.98;;;19.70;47.40;;;;;;6151808;28;20035;-68
2022/04/24 10:00:19;;;;;;;2.53;1.45;;;19.70;48.20;;;;;;6151135;28;20024;-68
2022/04/24 10:03:20;;;;;;;5.10;2.25;;;19.70;47.40;;;;;;6152786;28;20054;-68
2022/04/24 10:06:22;;;;;;;4.45;1.67;;;19.70;47.50;;;;;;6151489;28;20023;-68
2022/04/24 10:09:24;;;;;;;3.70;1.70;;;19.70;47.40;;;;;;6151420;28;20032;-68
2022/04/24 10:12:25;;;;;;;3.55;1.60;;;19.70;47.40;;;;;;6150859;28;20520;-68
2022/04/24 10:15:27;;;;;;;3.33;1.67;;;19.70;47.50;;;;;;6151166;28;20031;-68
2022/04/24 10:18:55;;;;;;;2.75;1.48;;;19.70;47.50;;;;;;6149731;28;20069;-68
2022/04/24 10:22:35;;;;;;;2.75;1.58;;;19.70;47.40;;;;;;6150762;28;20086;-68
2022/04/24 10:25:38;;;;;;;3.53;1.60;;;19.70;47.40;;;;;;6140281;28;20066;-68
2022/04/24 10:28:40;;;;;;;3.55;1.65;;;19.70;47.50;;;;;;6151319;28;20027;-68
2022/04/24 10:31:46;;;;;;;2.42;1.48;;;19.70;47.50;;;;;;6150414;28;20568;-69
2022/04/24 10:34:47;;;;;;;3.20;1.88;;;19.70;47.50;;;;;;6166793;28;20058;-68
2022/04/24 10:37:47;;;;;;;2.53;1.50;;;19.70;47.40;;;;;;6174964;28;20030;-68
2022/04/24 10:41:06;;;;;;;2.97;1.42;;;19.70;47.50;;;;;;6178606;28;20030;-68
2022/04/24 10:44:17;;;;;;;2.05;1.35;;;19.70;47.50;;;;;;6157971;28;20074;-69
2022/04/24 10:47:17;;;;;;;2.95;1.30;;;19.70;47.50;;;;;;6125728;29;20066;-68
2022/04/24 10:50:19;;;;;;;3.53;1.73;;;19.70;47.40;;;;;;6126642;29;20039;-68
2022/04/24 10:53:20;;;;;;;3.17;1.50;;;19.70;47.50;;;;;;6126586;29;20051;-69
2022/04/24 10:56:20;;;;;;;2.75;1.35;;;19.70;47.50;;;;;;6127150;29;20046;-68
2022/04/24 10:59:22;;;;;;;3.28;1.52;;;19.70;47.50;;;;;;6126019;29;20430;-68
2022/04/24 11:02:26;;;;;;;3.05;1.67;;;19.70;47.50;;;;;;6124717;29;20063;-68
2022/04/24 11:05:27;;;;;;;2.25;1.30;;;19.70;47.50;;;;;;6124684;29;20387;-68
2022/04/24 11:08:27;;;;;;;1.85;1.20;;;19.70;47.50;;;;;;6124814;29;20051;-68
2022/04/24 11:11:28;;;;;;;4.50;1.60;;;19.70;47.50;;;;;;6124707;29;20079;-69
2022/04/24 11:14:29;;;;;;;2.55;1.33;;;19.70;47.50;;;;;;6124692;29;20111;-68
2022/04/24 11:17:29;;;;;;;1.40;1.10;;;19.80;47.60;;;;;;6124288;29;20027;-68
2022/04/24 11:20:31;;;;;;;2.33;1.30;;;19.70;47.50;;;;;;6119446;28;20537;-68
2022/04/24 11:23:36;;;;;;;3.45;1.58;;;19.70;47.50;;;;;;6140992;28;20119;-68
2022/04/24 11:26:37;;;;;;;2.53;1.35;;;19.70;47.50;;;;;;6148353;28;20026;-68
2022/04/24 11:29:38;;;;;;;3.28;1.40;;;19.70;47.50;;;;;;6164581;28;20432;-68
2022/04/24 11:32:41;;;;;;;2.05;1.30;;;19.70;47.50;;;;;;6144344;29;20036;-68
2022/04/24 11:35:42;;;;;;;2.42;1.33;;;19.70;47.50;;;;;;6145366;29;20360;-70
2022/04/24 11:38:46;;;;;;;3.75;1.58;;;19.80;47.60;;;;;;6147400;28;20057;-68
2022/04/24 11:41:46;;;;;;;1.92;1.20;;;19.70;47.50;;;;;;6169384;28;20033;-68
2022/04/24 11:51:26;;;;;;;1.67;1.10;;;19.70;47.50;;;;;;6121443;29;20040;-68
2022/04/24 11:54:28;;;;;;;2.65;1.40;;;19.70;47.50;;;;;;6122824;29;20390;-68
2022/04/24 11:57:29;;;;;;;1.73;1.23;;;19.70;47.60;;;;;;6165990;28;20815;-68
2022/04/24 12:00:35;;;;;;;2.38;1.08;;;19.70;47.60;;;;;;6170191;28;20371;-68
2022/04/24 12:03:37;;;;;;;2.65;1.38;;;19.70;47.60;;;;;;6171163;28;20708;-68
2022/04/24 12:06:37;;;;;;;2.22;1.20;;;19.70;47.60;;;;;;6146665;28;20027;-68
2022/04/24 12:09:38;;;;;;;2.15;1.30;;;19.70;47.60;;;;;;6151928;28;20067;-69
2022/04/24 12:12:50;;;;;;;2.05;1.10;;;19.70;47.60;;;;;;6109341;28;20071;-68
2022/04/24 12:15:52;;;;;;;1.58;1.15;;;19.70;48.00;;;;;;6131344;28;20034;-69
2022/04/24 12:18:57;;;;;;;1.30;0.82;;;19.80;48.20;;;;;;6145186;28;20058;-69
2022/04/24 12:22:05;;;;;;;4.40;1.27;;;19.80;47.80;;;;;;6146293;28;20514;-68
2022/04/24 12:25:18;;;;;;;2.95;1.40;;;19.90;47.40;;;;;;6146042;29;20055;-69
2022/04/24 12:28:41;;;;;;;1.70;1.00;;;19.90;47.50;;;;;;6146785;28;20050;-70
2022/04/24 12:31:42;;;;;;;1.92;1.08;;;20.00;47.50;;;;;;6146483;28;20052;-68
2022/04/24 12:34:44;;;;;;;3.40;1.40;;;20.00;47.50;;;;;;6146565;28;20042;-69
2022/04/24 12:37:46;;;;;;;1.55;1.10;;;20.00;47.00;;;;;;6154416;28;20375;-69
2022/04/24 12:40:57;;;;;;;2.65;1.20;;;20.00;47.30;;;;;;6127369;28;20012;-67
2022/04/24 12:44:02;;;;;;;5.95;1.58;;;20.00;47.50;;;;;;6129871;28;20023;-68
2022/04/24 12:47:03;;;;;;;1.70;1.20;;;20.00;47.40;;;;;;6146948;28;20563;-68
2022/04/24 12:50:04;;;;;;;2.88;1.10;;;20.00;47.50;;;;;;6146581;28;20058;-69
2022/04/24 12:53:05;;;;;;;2.10;1.40;;;20.00;47.50;;;;;;6145877;28;20188;-68
2022/04/24 12:56:06;;;;;;;1.63;1.10;;;20.00;47.50;;;;;;6146196;28;20521;-68
2022/04/24 12:59:06;;;;;;;1.58;1.10;;;20.00;47.50;;;;;;6146708;28;20086;-68
2022/04/24 13:02:07;;;;;;;1.80;1.13;;;20.00;47.50;;;;;;6144488;28;20229;-68
2022/04/24 13:05:08;;;;;;;1.73;1.08;;;20.00;47.50;;;;;;6145377;28;20023;-68
2022/04/24 13:08:09;;;;;;;3.63;1.55;;;20.00;47.50;;;;;;6146412;28;20090;-68
2022/04/24 13:11:09;;;;;;;1.40;1.02;;;20.00;47.50;;;;;;6144889;28;20036;-68
2022/04/24 13:14:10;;;;;;;3.78;1.10;;;20.00;47.50;;;;;;6136459;28;20047;-69
2022/04/24 13:20:30;;;;;;;6.68;1.25;;;20.00;47.60;;;;;;6132850;28;20236;-69
2022/04/24 13:23:31;;;;;;;3.72;1.08;;;20.00;47.50;;;;;;6144652;28;20037;-68
2022/04/24 13:26:32;;;;;;;2.03;1.10;;;20.00;47.60;;;;;;6165011;28;20541;-68
2022/04/24 13:29:33;;;;;;;2.22;1.10;;;19.90;47.50;;;;;;6146007;28;20058;-69
2022/04/24 13:32:33;;;;;;;7.20;1.27;;;19.90;47.80;;;;;;6145732;29;20040;-68
2022/04/24 13:35:33;;;;;;;8.48;1.40;;;19.90;47.60;;;;;;6167740;28;20482;-69
2022/04/24 13:38:34;;;;;;;11.05;1.75;;;19.90;47.60;;;;;;6170151;28;20023;-68
2022/04/24 13:41:35;;;;;;;19.70;1.73;;;19.90;47.60;;;;;;6169476;28;20485;-68
2022/04/24 13:44:35;;;;;;;10.57;1.60;;;19.90;47.60;;;;;;6144385;28;20027;-68
2022/04/24 13:47:36;;;;;;;16.40;1.73;;;19.90;47.60;;;;;;6136113;28;20038;-68
2022/04/24 13:50:37;;;;;;;5.57;1.40;;;19.90;47.70;;;;;;6144362;28;20042;-68
2022/04/24 13:53:38;;;;;;;7.63;1.45;;;19.90;47.60;;;;;;6147352;28;20031;-69
2022/04/24 13:56:39;;;;;;;9.48;1.90;;;19.90;47.70;;;;;;6145619;28;20660;-69
2022/04/24 13:59:42;;;;;;;10.18;1.60;;;19.90;47.60;;;;;;6145800;28;20086;-69
2022/04/24 14:02:43;;;;;;;12.32;1.92;;;19.90;47.60;;;;;;6144539;28;20142;-69
2022/04/24 14:05:45;;;;;;;8.35;1.50;;;19.80;47.50;;;;;;6145201;29;20027;-68
2022/04/24 14:08:46;;;;;;;7.55;1.48;;;19.90;47.50;;;;;;6144339;28;20074;-69
2022/04/24 14:11:46;;;;;;;10.88;2.30;;;19.80;47.30;;;;;;6144212;28;20434;-69
2022/04/24 14:14:47;;;;;;;8.95;1.73;;;19.80;47.30;;;;;;6137556;28;20107;-69
2022/04/24 14:17:47;;;;;;;12.98;1.80;;;19.80;47.20;;;;;;6144605;28;20031;-68
2022/04/24 14:20:48;;;;;;;7.90;1.85;;;19.80;47.00;;;;;;6143788;28;20019;-69
2022/04/24 14:23:48;;;;;;;9.35;1.70;;;19.80;46.80;;;;;;6144226;28;20164;-69
2022/04/24 14:26:53;;;;;;;3.95;1.75;;;19.80;46.80;;;;;;6131683;28;20031;-68
2022/04/24 14:29:54;;;;;;;2.67;1.45;;;19.80;46.80;;;;;;6149219;28;20034;-68
2022/04/24 14:32:54;;;;;;;7.43;1.52;;;19.80;46.60;;;;;;6148484;29;20510;-68
2022/04/24 14:35:55;;;;;;;6.13;1.48;;;19.80;46.60;;;;;;6148879;29;20047;-69
2022/04/24 14:38:55;;;;;;;7.25;1.50;;;19.80;46.50;;;;;;6149791;29;20483;-69
2022/04/24 14:41:57;;;;;;;5.72;1.80;;;19.80;46.50;;;;;;6149098;29;20097;-68
2022/04/24 14:44:57;;;;;;;4.72;1.60;;;19.80;46.80;;;;;;6132701;29;20027;-69
2022/04/24 14:57:55;;;;;;;4.00;1.67;;;19.80;46.80;;;;;;6125083;29;20024;-68
2022/04/24 15:00:56;;;;;;;2.17;1.30;;;19.80;46.90;;;;;;6124742;29;20031;-69
2022/04/24 15:03:57;;;;;;;1.98;1.17;;;19.80;46.90;;;;;;6124828;29;20130;-69
2022/04/24 15:06:57;;;;;;;3.13;1.10;;;19.80;47.00;;;;;;6124819;29;20032;-68
2022/04/24 15:09:58;;;;;;;3.42;1.20;;;19.80;47.00;;;;;;6127330;29;20019;-68
2022/04/24 15:13:00;;;;;;;1.90;1.40;;;19.80;47.00;;;;;;6147721;28;20039;-68
2022/04/24 15:16:00;;;;;;;2.90;1.27;;;19.80;47.00;;;;;;6124513;29;20034;-68
2022/04/24 15:19:01;;;;;;;2.15;1.33;;;19.80;47.00;;;;;;6125123;29;20032;-68
2022/04/24 15:22:02;;;;;;;2.38;1.20;;;19.80;47.10;;;;;;6125108;28;20114;-68
2022/04/24 15:25:03;;;;;;;3.55;1.30;;;19.80;47.10;;;;;;6148307;28;20027;-68
2022/04/24 15:28:04;;;;;;;2.17;1.13;;;19.80;47.10;;;;;;6131290;28;20482;-68
2022/04/24 15:31:05;;;;;;;3.25;0.93;;;19.80;47.20;;;;;;6157781;28;20041;-68
2022/04/24 15:34:05;;;;;;;2.20;1.20;;;19.80;47.20;;;;;;6171233;28;20062;-68
2022/04/24 15:37:06;;;;;;;1.23;1.00;;;19.80;47.30;;;;;;6171941;28;20094;-68
2022/04/24 15:40:09;;;;;;;2.50;1.45;;;19.80;47.20;;;;;;6171951;28;20039;-68
2022/04/24 15:43:09;;;;;;;1.30;1.00;;;19.80;47.20;;;;;;6169696;28;20029;-68
2022/04/24 15:46:10;;;;;;;2.88;1.10;;;19.80;47.30;;;;;;6123536;29;20023;-68
2022/04/24 15:49:11;;;;;;;2.15;1.00;;;19.80;47.30;;;;;;6123952;29;20133;-68
2022/04/24 15:52:12;;;;;;;2.08;1.00;;;19.80;47.30;;;;;;6123593;29;20130;-68
2022/04/24 15:55:15;;;;;;;2.45;1.10;;;19.80;47.30;;;;;;6123691;29;20036;-68
2022/04/24 15:58:16;;;;;;;3.08;1.10;;;19.80;47.30;;;;;;6123910;29;20035;-68
2022/04/24 16:01:17;;;;;;;1.42;0.90;;;19.80;47.30;;;;;;6123207;29;20034;-68
2022/04/24 16:04:17;;;;;;;1.85;1.00;;;19.80;47.30;;;;;;6123365;29;20539;-68